Time;durP1;ratioP1;P1;durP2;ratioP2;P2;SDS_P1;SDS_P2;PMS_P1;PMS_P2;Temp;Humidity;BMP_temperature;BMP_pressure;BME280_temperature;BME280_humidity;BME280_pressure;Samples;Min_cycle;Max_cycle;Signal;HPM_P1;HPM_P2
2021/09/06 00:02:00;;;;;;;1.67;1.58;;;14.20;62.30;;;;;;5012759;28;20049;-59
2021/09/06 00:04:26;;;;;;;2.03;1.63;;;14.20;62.10;;;;;;5013707;28;20026;-58
2021/09/06 00:06:51;;;;;;;1.80;1.70;;;14.20;62.20;;;;;;5013536;28;20030;-58
2021/09/06 00:09:17;;;;;;;2.00;1.75;;;14.10;62.80;;;;;;4999608;28;20022;-58
2021/09/06 00:11:43;;;;;;;2.63;1.98;;;14.10;62.20;;;;;;5011999;28;20058;-60
2021/09/06 00:14:08;;;;;;;2.05;1.85;;;14.10;62.30;;;;;;5013613;28;20029;-59
2021/09/06 00:16:34;;;;;;;2.20;2.00;;;14.10;62.20;;;;;;5010667;28;20036;-59
2021/09/06 00:19:00;;;;;;;2.28;1.80;;;14.10;62.30;;;;;;5011231;28;20073;-56
2021/09/06 00:21:25;;;;;;;1.85;1.75;;;14.10;62.50;;;;;;5011350;28;20050;-58
2021/09/06 00:23:51;;;;;;;1.73;1.63;;;14.10;62.30;;;;;;5012896;28;20037;-60
2021/09/06 00:26:17;;;;;;;2.88;1.77;;;14.10;62.50;;;;;;5012699;28;20042;-60
2021/09/06 00:28:42;;;;;;;3.40;2.15;;;14.10;62.40;;;;;;5013039;28;20702;-59
2021/09/06 00:31:08;;;;;;;2.83;2.22;;;14.10;62.60;;;;;;5012104;28;20058;-58
2021/09/06 00:33:34;;;;;;;2.00;1.90;;;14.10;62.60;;;;;;5012858;28;20041;-59
2021/09/06 00:36:00;;;;;;;2.13;1.92;;;14.10;62.60;;;;;;5012577;28;20026;-59
2021/09/06 00:38:26;;;;;;;1.98;1.77;;;14.10;62.70;;;;;;5013686;28;20033;-58
2021/09/06 00:40:51;;;;;;;2.78;2.35;;;14.00;62.50;;;;;;5011993;28;20532;-59
2021/09/06 00:43:18;;;;;;;1.83;1.70;;;14.00;62.70;;;;;;5013310;28;20390;-59
2021/09/06 00:45:45;;;;;;;3.00;2.17;;;14.00;62.80;;;;;;5012186;28;20038;-59
2021/09/06 00:48:20;;;;;;;5.45;2.83;;;14.00;62.90;;;;;;5012167;28;20061;-59
2021/09/06 00:50:46;;;;;;;2.13;1.83;;;14.00;63.00;;;;;;5010319;28;20116;-59
2021/09/06 00:53:15;;;;;;;2.35;1.92;;;14.00;63.10;;;;;;5009960;28;20034;-59
2021/09/06 00:55:41;;;;;;;3.22;2.25;;;14.00;63.10;;;;;;5010453;28;20029;-59
2021/09/06 00:58:08;;;;;;;2.75;2.30;;;14.00;63.20;;;;;;5011574;28;20374;-59
2021/09/06 01:00:34;;;;;;;2.63;1.98;;;14.00;63.40;;;;;;5010635;28;20037;-59
2021/09/06 01:02:59;;;;;;;3.50;2.08;;;14.00;63.40;;;;;;5012910;28;20032;-59
2021/09/06 01:05:25;;;;;;;2.20;2.00;;;13.90;63.40;;;;;;5012345;28;20370;-59
2021/09/06 01:07:51;;;;;;;3.28;2.38;;;13.90;63.60;;;;;;5010901;28;20032;-59
2021/09/06 01:10:16;;;;;;;2.63;2.30;;;13.90;63.80;;;;;;5012729;28;20367;-59
2021/09/06 01:12:43;;;;;;;2.00;1.90;;;13.90;63.80;;;;;;5011795;28;20080;-59
2021/09/06 01:15:10;;;;;;;2.40;2.10;;;13.90;63.80;;;;;;5010326;28;20085;-59
2021/09/06 01:17:36;;;;;;;3.55;2.05;;;13.90;64.10;;;;;;5009576;28;20053;-59
2021/09/06 01:20:03;;;;;;;2.25;2.03;;;13.90;64.20;;;;;;5010632;28;20041;-58
2021/09/06 01:22:29;;;;;;;2.78;1.83;;;13.90;64.00;;;;;;5010131;28;20026;-58
2021/09/06 01:24:54;;;;;;;2.85;2.10;;;13.90;64.10;;;;;;5010076;28;20025;-59
2021/09/06 01:27:20;;;;;;;3.15;2.22;;;13.90;64.10;;;;;;5010752;28;20080;-59
2021/09/06 01:29:46;;;;;;;2.90;2.30;;;13.80;64.10;;;;;;5008279;28;20034;-59
2021/09/06 01:32:11;;;;;;;3.13;2.40;;;13.90;64.30;;;;;;5011440;28;20029;-59
2021/09/06 01:34:38;;;;;;;2.25;2.03;;;13.80;64.30;;;;;;5011601;28;20018;-59
2021/09/06 01:37:04;;;;;;;3.42;2.50;;;13.80;64.40;;;;;;5012186;28;20037;-58
2021/09/06 01:39:30;;;;;;;2.50;2.30;;;13.80;64.40;;;;;;5011913;28;20073;-59
2021/09/06 01:41:56;;;;;;;2.75;2.25;;;13.80;64.70;;;;;;5012893;28;20022;-59
2021/09/06 01:44:22;;;;;;;2.35;2.08;;;13.70;64.60;;;;;;5009813;28;20050;-57
2021/09/06 01:46:48;;;;;;;2.33;2.13;;;13.80;64.70;;;;;;4992865;28;20053;-59
2021/09/06 01:49:16;;;;;;;3.85;2.20;;;13.80;64.80;;;;;;4992429;28;20026;-58
2021/09/06 01:51:42;;;;;;;3.63;2.40;;;13.80;65.10;;;;;;5009036;28;20034;-59
2021/09/06 01:54:09;;;;;;;4.68;2.78;;;13.80;65.10;;;;;;5011809;28;20037;-57
2021/09/06 01:56:35;;;;;;;2.63;2.03;;;13.80;65.10;;;;;;5011796;28;20153;-59
2021/09/06 01:59:01;;;;;;;4.28;2.60;;;13.80;65.80;;;;;;5011156;28;20022;-57
2021/09/06 02:01:26;;;;;;;2.40;2.13;;;13.80;65.20;;;;;;5008577;28;20034;-59
2021/09/06 02:03:52;;;;;;;3.60;2.50;;;13.80;65.20;;;;;;5013876;28;20386;-59
2021/09/06 02:06:18;;;;;;;2.00;1.85;;;13.80;65.50;;;;;;5016249;28;20040;-59
2021/09/06 02:08:43;;;;;;;3.22;2.50;;;13.80;65.50;;;;;;5010732;28;20521;-58
2021/09/06 02:11:10;;;;;;;3.78;2.40;;;13.80;65.60;;;;;;5008513;28;20057;-59
2021/09/06 02:13:35;;;;;;;5.15;3.05;;;13.80;65.80;;;;;;5014428;28;20022;-57
2021/09/06 02:16:01;;;;;;;2.95;2.47;;;13.80;66.00;;;;;;5012680;28;20045;-59
2021/09/06 02:18:27;;;;;;;3.83;2.85;;;13.70;66.10;;;;;;5012443;28;20120;-58
2021/09/06 02:20:53;;;;;;;4.05;3.00;;;13.70;66.10;;;;;;5015817;28;20129;-59
2021/09/06 02:23:19;;;;;;;4.05;2.85;;;13.70;66.30;;;;;;5015206;28;20026;-59
2021/09/06 02:25:44;;;;;;;4.82;2.80;;;13.70;66.60;;;;;;5014381;28;20067;-57
2021/09/06 02:28:10;;;;;;;4.65;3.20;;;13.60;66.50;;;;;;5012868;28;20371;-59
2021/09/06 02:30:36;;;;;;;3.10;2.72;;;13.60;66.70;;;;;;5014831;28;20084;-59
2021/09/06 02:33:02;;;;;;;4.82;2.83;;;13.60;66.80;;;;;;5015961;28;20030;-58
2021/09/06 02:35:28;;;;;;;4.25;2.72;;;13.60;66.90;;;;;;5013654;28;20309;-59
2021/09/06 02:37:53;;;;;;;4.80;2.83;;;13.50;66.90;;;;;;5016026;28;20515;-60
2021/09/06 02:40:19;;;;;;;4.30;3.22;;;13.50;67.00;;;;;;5015099;28;20030;-59
2021/09/06 02:42:45;;;;;;;3.83;2.60;;;13.50;67.10;;;;;;5012131;28;20382;-59
2021/09/06 02:45:11;;;;;;;3.10;2.45;;;13.40;67.20;;;;;;5008788;28;20026;-59
2021/09/06 02:47:38;;;;;;;5.13;2.90;;;13.50;67.40;;;;;;5016152;28;20022;-59
2021/09/06 02:50:04;;;;;;;4.85;2.80;;;13.40;67.30;;;;;;5015447;28;20551;-59
2021/09/06 02:52:31;;;;;;;3.03;2.47;;;13.40;67.50;;;;;;5014817;28;20036;-59
2021/09/06 02:54:57;;;;;;;2.95;2.30;;;13.40;67.60;;;;;;5015447;28;20443;-58
2021/09/06 02:57:23;;;;;;;2.50;2.30;;;13.30;67.70;;;;;;5013875;28;20093;-59
2021/09/06 02:59:48;;;;;;;3.85;2.60;;;13.30;67.80;;;;;;5014293;28;20034;-59
2021/09/06 03:02:14;;;;;;;4.15;2.97;;;13.30;67.80;;;;;;5016447;28;20490;-56
2021/09/06 03:04:40;;;;;;;3.25;2.50;;;13.30;67.90;;;;;;5015805;28;20378;-59
2021/09/06 03:07:05;;;;;;;2.65;2.45;;;13.20;67.90;;;;;;5016234;28;20030;-59
2021/09/06 03:09:31;;;;;;;4.30;2.75;;;13.20;67.90;;;;;;5003532;28;20038;-59
2021/09/06 03:11:57;;;;;;;3.15;2.60;;;13.20;68.00;;;;;;4997140;28;20030;-59
2021/09/06 03:14:23;;;;;;;2.63;2.42;;;13.20;68.10;;;;;;5011233;28;20489;-58
2021/09/06 03:16:50;;;;;;;2.70;2.50;;;13.20;68.50;;;;;;5015629;28;20041;-58
2021/09/06 03:19:16;;;;;;;4.03;2.40;;;13.20;68.50;;;;;;5014415;28;20033;-58
2021/09/06 03:21:42;;;;;;;3.50;2.50;;;13.20;68.70;;;;;;5016039;28;20049;-59
2021/09/06 03:24:08;;;;;;;3.08;2.22;;;13.10;68.70;;;;;;5015233;28;20036;-59
2021/09/06 03:26:33;;;;;;;3.47;2.30;;;13.20;69.00;;;;;;5015409;28;20030;-58
2021/09/06 03:28:59;;;;;;;3.22;2.63;;;13.10;69.20;;;;;;5014876;28;20018;-59
2021/09/06 03:31:25;;;;;;;4.90;2.70;;;13.20;69.30;;;;;;5013699;28;20065;-59
2021/09/06 03:33:50;;;;;;;3.92;2.92;;;13.20;69.30;;;;;;5024822;28;20136;-59
2021/09/06 03:36:16;;;;;;;2.65;2.33;;;13.20;69.30;;;;;;5016308;28;20037;-59
2021/09/06 03:38:41;;;;;;;4.15;2.92;;;13.20;69.40;;;;;;5015439;28;20489;-57
2021/09/06 03:41:07;;;;;;;4.13;3.10;;;13.20;69.50;;;;;;5016772;28;20029;-58
2021/09/06 03:43:33;;;;;;;4.57;3.25;;;13.20;69.40;;;;;;5014405;28;20040;-59
2021/09/06 03:45:59;;;;;;;3.55;2.90;;;13.20;69.40;;;;;;5011367;28;20083;-58
2021/09/06 03:48:25;;;;;;;5.35;3.22;;;13.20;69.50;;;;;;4996342;28;20026;-59
2021/09/06 03:50:50;;;;;;;3.55;2.80;;;13.20;70.40;;;;;;5007159;28;20038;-59
2021/09/06 03:53:16;;;;;;;3.78;2.72;;;13.20;69.70;;;;;;5014815;28;20065;-58
2021/09/06 03:55:42;;;;;;;4.97;3.10;;;13.20;70.00;;;;;;5013642;28;20022;-59
2021/09/06 03:58:07;;;;;;;3.85;2.92;;;13.30;70.00;;;;;;5013834;28;20026;-59
2021/09/06 04:00:33;;;;;;;2.90;2.45;;;13.30;70.20;;;;;;5012076;28;20117;-59
2021/09/06 04:02:59;;;;;;;3.85;2.65;;;13.30;70.00;;;;;;5001278;28;20022;-60
2021/09/06 04:05:24;;;;;;;3.15;2.85;;;13.30;70.00;;;;;;5002752;28;20029;-58
2021/09/06 04:07:50;;;;;;;3.88;2.75;;;13.40;70.20;;;;;;5014863;28;20155;-58
2021/09/06 04:10:15;;;;;;;4.63;3.00;;;13.40;70.20;;;;;;5013415;28;20449;-59
2021/09/06 04:12:41;;;;;;;3.17;2.47;;;13.50;70.20;;;;;;5023409;28;20029;-56
2021/09/06 04:15:09;;;;;;;2.70;2.50;;;13.50;70.10;;;;;;5016964;28;20049;-59
2021/09/06 04:17:36;;;;;;;3.53;2.40;;;13.60;70.20;;;;;;5003627;28;20030;-59
2021/09/06 04:20:02;;;;;;;4.47;2.50;;;13.60;70.10;;;;;;5012234;28;20042;-59
2021/09/06 04:22:28;;;;;;;4.60;2.85;;;13.60;70.00;;;;;;5014433;28;20018;-59
2021/09/06 04:24:53;;;;;;;3.15;2.60;;;13.70;70.10;;;;;;5013339;28;20381;-57
2021/09/06 04:27:19;;;;;;;3.67;2.70;;;13.70;70.00;;;;;;5012378;28;20027;-59
2021/09/06 04:29:45;;;;;;;3.25;2.30;;;13.70;70.00;;;;;;5013246;28;20022;-58
2021/09/06 04:32:10;;;;;;;5.40;3.83;;;13.80;70.00;;;;;;5014269;28;20025;-59
2021/09/06 04:34:36;;;;;;;5.05;3.75;;;13.80;70.00;;;;;;5010427;28;20083;-60
2021/09/06 04:37:03;;;;;;;4.18;3.03;;;13.90;69.90;;;;;;5018418;28;20545;-59
2021/09/06 04:39:29;;;;;;;4.95;3.10;;;14.00;70.90;;;;;;5015730;28;20165;-59
2021/09/06 04:41:55;;;;;;;3.25;2.70;;;14.10;69.80;;;;;;5013979;28;20453;-57
2021/09/06 04:44:20;;;;;;;3.30;2.60;;;14.10;70.00;;;;;;5013715;28;20101;-59
2021/09/06 04:46:46;;;;;;;2.85;2.63;;;14.20;69.70;;;;;;5012275;28;20033;-59
2021/09/06 04:49:12;;;;;;;3.88;3.00;;;14.30;69.60;;;;;;5010607;28;20022;-57
2021/09/06 04:51:38;;;;;;;2.47;2.15;;;14.40;69.60;;;;;;5012738;28;20433;-59
2021/09/06 04:54:04;;;;;;;3.20;2.55;;;14.40;69.30;;;;;;5012932;28;20036;-59
2021/09/06 04:56:29;;;;;;;4.15;2.80;;;14.40;69.20;;;;;;5010392;28;20022;-59
2021/09/06 04:58:55;;;;;;;3.20;2.60;;;14.50;69.20;;;;;;5010804;28;20061;-59
2021/09/06 05:01:21;;;;;;;2.90;2.55;;;14.50;69.10;;;;;;5011883;28;20125;-59
2021/09/06 05:03:46;;;;;;;2.63;2.30;;;14.60;68.90;;;;;;5008716;28;20489;-59
2021/09/06 05:06:12;;;;;;;5.65;3.47;;;14.60;68.30;;;;;;5014373;28;20378;-59
2021/09/06 05:08:38;;;;;;;3.20;2.30;;;14.70;67.90;;;;;;5012415;28;20104;-58
2021/09/06 05:11:03;;;;;;;2.25;2.03;;;14.80;67.70;;;;;;5012084;28;20070;-59
2021/09/06 05:13:30;;;;;;;2.45;2.20;;;14.80;67.40;;;;;;5013011;28;20608;-59
2021/09/06 05:15:56;;;;;;;2.47;1.70;;;14.90;67.20;;;;;;5012186;28;20037;-58
2021/09/06 05:18:22;;;;;;;2.28;2.00;;;15.00;66.60;;;;;;5007947;28;20037;-58
2021/09/06 05:20:48;;;;;;;2.30;2.10;;;15.00;66.40;;;;;;5007611;28;20398;-64
2021/09/06 05:23:13;;;;;;;2.30;1.98;;;15.10;66.10;;;;;;5010441;28;20017;-64
2021/09/06 05:25:39;;;;;;;2.63;1.95;;;15.20;65.90;;;;;;4995967;28;20038;-64
2021/09/06 05:28:05;;;;;;;2.08;1.88;;;15.30;65.40;;;;;;5004359;28;20533;-64
2021/09/06 05:30:31;;;;;;;2.92;2.17;;;15.30;65.20;;;;;;5007207;28;20025;-64
2021/09/06 05:32:57;;;;;;;3.45;2.22;;;15.40;65.10;;;;;;5018153;28;20453;-64
2021/09/06 05:35:23;;;;;;;2.33;2.13;;;15.40;64.80;;;;;;5012182;28;20144;-64
2021/09/06 05:37:48;;;;;;;2.72;2.53;;;15.50;64.60;;;;;;5018670;28;20068;-64
2021/09/06 05:40:14;;;;;;;2.85;2.35;;;15.60;64.50;;;;;;5014226;28;20034;-64
2021/09/06 05:42:40;;;;;;;2.33;1.92;;;15.60;64.20;;;;;;5014119;28;20034;-64
2021/09/06 05:45:06;;;;;;;2.40;2.15;;;15.80;63.90;;;;;;5017390;28;20026;-64
2021/09/06 05:47:32;;;;;;;2.10;1.90;;;15.90;63.60;;;;;;5012898;28;20725;-65
2021/09/06 05:49:57;;;;;;;2.08;1.98;;;16.00;63.20;;;;;;5008351;28;20018;-64
2021/09/06 05:52:23;;;;;;;2.88;2.10;;;16.10;63.00;;;;;;5002426;28;20038;-65
2021/09/06 05:54:49;;;;;;;1.98;1.88;;;16.10;62.80;;;;;;5008724;28;20033;-65
2021/09/06 05:57:14;;;;;;;2.53;2.00;;;16.20;62.90;;;;;;5002386;28;20367;-65
2021/09/06 05:59:40;;;;;;;2.05;1.88;;;16.20;62.90;;;;;;5009293;28;20036;-65
2021/09/06 06:02:06;;;;;;;2.47;2.00;;;16.10;62.90;;;;;;5001848;28;20367;-65
2021/09/06 06:04:31;;;;;;;3.33;2.00;;;16.10;62.70;;;;;;5010308;28;20038;-64
2021/09/06 06:06:57;;;;;;;2.33;1.90;;;16.10;62.70;;;;;;5005543;28;20057;-65
2021/09/06 06:09:23;;;;;;;3.22;2.22;;;16.10;62.70;;;;;;5000630;28;20069;-63
2021/09/06 06:11:48;;;;;;;2.47;2.00;;;16.10;62.60;;;;;;5002029;28;20038;-62
2021/09/06 06:14:15;;;;;;;1.98;1.80;;;16.00;62.30;;;;;;5003860;28;20029;-64
2021/09/06 06:16:40;;;;;;;2.47;1.85;;;16.00;62.50;;;;;;5003817;28;20144;-63
2021/09/06 06:19:06;;;;;;;2.22;2.03;;;16.00;62.50;;;;;;4995051;28;20413;-63
2021/09/06 06:21:33;;;;;;;1.95;1.77;;;16.00;62.60;;;;;;5009491;28;20045;-64
2021/09/06 06:23:59;;;;;;;3.50;2.10;;;15.90;62.40;;;;;;5012961;28;20105;-63
2021/09/06 06:26:25;;;;;;;1.75;1.65;;;15.90;62.20;;;;;;5005801;28;20076;-61
2021/09/06 06:28:51;;;;;;;1.67;1.58;;;15.90;62.60;;;;;;5007612;28;20069;-64
2021/09/06 06:31:17;;;;;;;2.10;1.90;;;16.00;62.30;;;;;;4999757;28;20062;-62
2021/09/06 06:33:43;;;;;;;2.53;1.70;;;16.00;62.10;;;;;;5001398;28;20037;-62
2021/09/06 06:36:08;;;;;;;2.03;1.83;;;16.00;62.30;;;;;;4997694;28;20030;-63
2021/09/06 06:38:35;;;;;;;2.20;2.00;;;15.90;62.30;;;;;;5001535;28;20033;-64
2021/09/06 06:41:02;;;;;;;2.53;2.00;;;16.00;62.20;;;;;;4995809;28;20044;-63
2021/09/06 06:43:28;;;;;;;2.80;1.88;;;15.90;62.50;;;;;;4996184;28;20030;-63
2021/09/06 06:45:54;;;;;;;2.85;2.55;;;15.90;62.10;;;;;;5000258;28;20034;-63
2021/09/06 06:48:19;;;;;;;2.30;2.10;;;15.90;61.90;;;;;;4993886;28;20676;-62
2021/09/06 06:50:45;;;;;;;2.10;1.90;;;15.90;62.00;;;;;;4998558;28;20042;-64
2021/09/06 06:53:11;;;;;;;2.05;1.85;;;15.90;62.10;;;;;;4993042;28;20030;-64
2021/09/06 06:55:36;;;;;;;2.70;1.98;;;15.90;61.90;;;;;;4991488;28;20049;-64
2021/09/06 06:58:02;;;;;;;1.77;1.67;;;15.90;62.20;;;;;;4991345;28;20161;-65
2021/09/06 07:00:28;;;;;;;2.03;1.83;;;16.00;62.00;;;;;;4994493;28;20044;-63
2021/09/06 07:02:54;;;;;;;2.00;1.75;;;16.10;62.00;;;;;;4993021;28;20116;-63
2021/09/06 07:05:20;;;;;;;1.67;1.58;;;16.10;61.80;;;;;;4983945;28;20824;-63
2021/09/06 07:07:45;;;;;;;2.42;1.85;;;16.20;61.50;;;;;;4984438;28;20034;-63
2021/09/06 07:10:11;;;;;;;2.17;1.67;;;16.20;61.40;;;;;;4990086;28;20033;-62
2021/09/06 07:12:38;;;;;;;2.25;2.00;;;16.20;61.50;;;;;;4991291;28;20088;-63
2021/09/06 07:15:08;;;;;;;2.28;1.83;;;16.30;61.10;;;;;;4989778;28;20132;-63
2021/09/06 07:17:34;;;;;;;3.07;2.03;;;16.30;61.00;;;;;;4992854;28;20034;-65
2021/09/06 07:20:00;;;;;;;2.00;1.73;;;16.40;61.00;;;;;;4989539;28;20294;-63
2021/09/06 07:22:26;;;;;;;2.53;2.15;;;16.40;60.90;;;;;;4994835;28;20394;-63
2021/09/06 07:24:53;;;;;;;1.60;1.50;;;16.40;60.90;;;;;;4992345;28;20033;-64
2021/09/06 07:27:19;;;;;;;1.95;1.70;;;16.50;60.70;;;;;;4992688;28;20056;-62
2021/09/06 07:29:45;;;;;;;1.98;1.60;;;16.60;60.30;;;;;;4999689;28;20034;-62
2021/09/06 07:32:11;;;;;;;1.75;1.60;;;16.60;60.00;;;;;;5002188;28;20030;-63
2021/09/06 07:34:37;;;;;;;1.67;1.38;;;16.70;59.80;;;;;;4995511;28;20045;-63
2021/09/06 07:37:04;;;;;;;3.70;1.70;;;16.80;59.70;;;;;;4997781;28;20034;-63
2021/09/06 07:39:30;;;;;;;1.63;1.35;;;16.80;59.50;;;;;;4997678;28;20069;-64
2021/09/06 07:41:57;;;;;;;1.33;1.23;;;16.90;59.30;;;;;;4987885;28;20137;-63
2021/09/06 07:44:23;;;;;;;1.65;1.30;;;17.00;58.80;;;;;;4998727;28;20670;-63
2021/09/06 07:46:50;;;;;;;1.58;1.35;;;17.10;58.50;;;;;;5030553;28;20038;-64
2021/09/06 07:49:17;;;;;;;2.13;1.60;;;17.20;58.20;;;;;;4995024;28;20072;-63
2021/09/06 07:51:46;;;;;;;2.13;1.80;;;17.20;58.00;;;;;;4999837;28;20034;-63
2021/09/06 07:54:12;;;;;;;1.60;1.50;;;17.30;57.90;;;;;;4992522;28;20113;-63
2021/09/06 07:56:38;;;;;;;1.50;1.40;;;17.40;57.60;;;;;;4996358;28;20646;-63
2021/09/06 07:59:04;;;;;;;1.80;1.70;;;17.40;57.30;;;;;;4997361;28;20366;-63
2021/09/06 08:01:30;;;;;;;2.10;1.90;;;17.50;57.30;;;;;;4996676;28;20058;-63
2021/09/06 08:03:55;;;;;;;1.25;1.23;;;17.50;57.30;;;;;;4998591;28;20041;-64
2021/09/06 08:06:21;;;;;;;4.05;2.20;;;17.60;57.20;;;;;;4994574;28;20026;-64
2021/09/06 08:08:48;;;;;;;2.47;1.90;;;17.60;57.00;;;;;;5004600;28;20071;-64
2021/09/06 08:11:13;;;;;;;1.55;1.45;;;17.60;56.80;;;;;;4993829;28;20100;-64
2021/09/06 08:13:39;;;;;;;2.45;1.63;;;17.60;56.70;;;;;;5000652;28;20500;-63
2021/09/06 08:16:05;;;;;;;2.28;1.58;;;17.60;56.40;;;;;;4999698;28;20108;-63
2021/09/06 08:18:30;;;;;;;2.05;1.70;;;17.60;56.20;;;;;;4991180;28;21351;-63
2021/09/06 08:20:56;;;;;;;1.20;1.15;;;17.60;56.30;;;;;;4994934;28;20050;-63
2021/09/06 08:23:22;;;;;;;1.58;1.33;;;17.50;56.00;;;;;;4992998;28;20057;-63
2021/09/06 08:25:47;;;;;;;2.55;1.63;;;17.50;55.70;;;;;;4993106;28;20030;-63
2021/09/06 08:28:13;;;;;;;1.30;1.20;;;17.40;55.70;;;;;;4997197;28;20050;-64
2021/09/06 08:30:39;;;;;;;1.60;1.50;;;17.40;55.80;;;;;;4995963;28;20055;-63
2021/09/06 08:33:05;;;;;;;1.30;1.20;;;17.40;55.60;;;;;;4987744;28;20034;-62
2021/09/06 08:35:30;;;;;;;1.60;1.50;;;17.40;55.50;;;;;;4985269;28;20038;-63
2021/09/06 08:37:56;;;;;;;1.60;1.40;;;17.40;55.20;;;;;;4991481;28;20038;-63
2021/09/06 08:40:22;;;;;;;1.80;1.70;;;17.30;55.00;;;;;;4987731;28;20034;-64
2021/09/06 08:42:48;;;;;;;2.40;1.55;;;17.30;55.00;;;;;;4991756;28;20196;-64
2021/09/06 08:45:14;;;;;;;3.30;1.50;;;17.30;55.00;;;;;;4988104;28;20034;-64
2021/09/06 08:47:40;;;;;;;1.30;1.20;;;17.30;54.90;;;;;;4994274;28;21720;-62
2021/09/06 08:50:09;;;;;;;1.95;1.60;;;17.30;54.60;;;;;;4987833;28;20382;-61
2021/09/06 08:52:34;;;;;;;3.17;1.80;;;17.20;54.60;;;;;;4992557;28;20401;-61
2021/09/06 08:55:00;;;;;;;1.63;1.50;;;17.30;54.50;;;;;;4987946;28;20034;-61
2021/09/06 08:57:26;;;;;;;1.98;1.50;;;17.30;54.40;;;;;;4979458;28;20041;-61
2021/09/06 08:59:59;;;;;;;1.48;1.38;;;17.40;54.30;;;;;;4983486;28;20042;-63
2021/09/06 09:02:25;;;;;;;2.05;1.85;;;17.40;54.20;;;;;;4985627;28;20091;-65
2021/09/06 09:05:07;;;;;;;1.55;1.45;;;17.50;53.90;;;;;;4991141;28;20026;-64
2021/09/06 09:07:33;;;;;;;1.60;1.50;;;17.50;53.90;;;;;;4989386;28;20137;-64
2021/09/06 09:09:59;;;;;;;1.30;1.20;;;17.60;53.80;;;;;;4987354;28;20050;-63
2021/09/06 09:12:26;;;;;;;1.45;1.30;;;17.60;53.70;;;;;;4984096;28;20034;-64
2021/09/06 09:14:57;;;;;;;1.30;1.23;;;17.70;53.70;;;;;;4984952;28;20502;-65
2021/09/06 09:17:24;;;;;;;1.33;1.23;;;17.70;53.60;;;;;;4982504;28;20052;-63
2021/09/06 09:19:50;;;;;;;1.60;1.50;;;17.80;53.70;;;;;;4983405;28;20057;-63
2021/09/06 09:22:20;;;;;;;2.72;1.60;;;17.90;53.40;;;;;;4981665;28;20045;-63
2021/09/06 09:25:00;;;;;;;1.25;1.15;;;17.90;53.40;;;;;;4989282;28;20041;-63
2021/09/06 09:27:34;;;;;;;2.28;1.75;;;18.00;53.00;;;;;;4988793;28;20030;-64
2021/09/06 09:30:00;;;;;;;1.42;1.33;;;18.10;52.90;;;;;;4988670;28;20375;-62
2021/09/06 09:32:26;;;;;;;1.45;1.33;;;18.20;52.80;;;;;;4988625;28;20153;-63
2021/09/06 09:35:03;;;;;;;1.20;1.20;;;18.20;52.70;;;;;;4991227;28;20589;-63
2021/09/06 09:37:29;;;;;;;1.50;1.23;;;18.30;52.50;;;;;;4990988;28;20041;-63
2021/09/06 09:39:56;;;;;;;1.42;1.33;;;18.30;52.40;;;;;;4979524;28;20378;-63
2021/09/06 09:42:23;;;;;;;1.00;1.00;;;18.40;52.00;;;;;;4983375;28;20156;-63
2021/09/06 09:44:51;;;;;;;2.17;1.30;;;18.50;51.80;;;;;;4990572;28;20053;-63
2021/09/06 09:47:19;;;;;;;0.93;0.90;;;18.50;52.10;;;;;;4990332;28;20065;-63
2021/09/06 09:49:46;;;;;;;1.15;1.05;;;18.60;51.50;;;;;;4985995;28;20477;-63
2021/09/06 09:52:12;;;;;;;2.67;1.25;;;18.60;51.30;;;;;;4992014;28;20044;-62
2021/09/06 09:54:37;;;;;;;1.08;1.08;;;18.70;51.30;;;;;;4990257;28;20038;-62
2021/09/06 09:57:03;;;;;;;1.23;1.13;;;18.70;51.10;;;;;;4996188;28;20056;-63
2021/09/06 09:59:29;;;;;;;1.40;1.30;;;18.80;50.80;;;;;;4987869;28;20044;-63
2021/09/06 10:02:05;;;;;;;2.60;2.08;;;18.80;50.50;;;;;;4994503;28;20025;-63
2021/09/06 10:04:34;;;;;;;0.93;0.93;;;18.80;50.20;;;;;;4986947;28;20124;-63
2021/09/06 10:07:01;;;;;;;1.38;1.27;;;18.80;49.90;;;;;;4995805;28;20026;-63
2021/09/06 10:09:28;;;;;;;1.48;1.38;;;18.80;49.90;;;;;;4985800;28;20034;-63
2021/09/06 10:12:05;;;;;;;1.17;1.08;;;18.80;49.70;;;;;;4990107;28;20234;-64
2021/09/06 10:14:32;;;;;;;1.27;1.20;;;18.80;49.80;;;;;;4992014;28;20038;-63
2021/09/06 10:17:08;;;;;;;1.60;1.25;;;18.90;49.90;;;;;;4993150;28;21122;-64
2021/09/06 10:19:41;;;;;;;1.52;1.42;;;18.90;49.40;;;;;;4991301;28;20042;-63
2021/09/06 10:22:18;;;;;;;1.10;1.00;;;18.90;49.40;;;;;;4993865;28;20041;-63
2021/09/06 10:24:57;;;;;;;1.20;1.10;;;18.90;49.60;;;;;;4990465;28;21389;-63
2021/09/06 10:27:23;;;;;;;1.92;1.23;;;18.90;49.10;;;;;;5000762;28;20037;-63
2021/09/06 10:30:09;;;;;;;1.75;1.38;;;18.90;48.90;;;;;;5001519;28;20478;-63
2021/09/06 10:32:48;;;;;;;1.30;1.20;;;19.00;49.40;;;;;;4996378;28;20032;-64
2021/09/06 10:35:22;;;;;;;1.55;1.23;;;19.00;48.60;;;;;;4997858;28;20049;-63
2021/09/06 10:38:11;;;;;;;1.85;1.30;;;19.00;48.40;;;;;;4999525;28;20036;-64
2021/09/06 10:40:40;;;;;;;1.15;1.13;;;18.90;48.50;;;;;;4998969;28;20026;-64
2021/09/06 10:43:19;;;;;;;1.42;1.33;;;18.90;48.60;;;;;;4998753;28;20076;-64
2021/09/06 10:45:48;;;;;;;5.32;2.15;;;18.90;49.20;;;;;;5003957;28;20030;-63
2021/09/06 10:48:24;;;;;;;1.13;1.00;;;18.90;49.30;;;;;;5003755;28;20026;-63
2021/09/06 10:50:52;;;;;;;1.20;1.10;;;18.90;48.80;;;;;;5000462;28;20026;-63
2021/09/06 10:53:23;;;;;;;1.05;1.00;;;18.80;48.90;;;;;;4992039;28;20026;-63
2021/09/06 10:55:54;;;;;;;1.58;1.48;;;18.80;48.60;;;;;;4999329;28;20038;-64
2021/09/06 10:58:21;;;;;;;;;;;18.80;48.50;;;;;;4992542;28;21574;-63
2021/09/06 11:00:52;;;;;;;1.13;1.02;;;18.70;48.40;;;;;;4997163;28;19917;-62
2021/09/06 11:03:22;;;;;;;1.25;1.10;;;18.70;48.90;;;;;;4999106;28;20033;-63
2021/09/06 11:05:56;;;;;;;2.55;1.90;;;18.70;49.10;;;;;;4991363;28;20041;-63
2021/09/06 11:08:33;;;;;;;1.73;1.40;;;18.70;48.90;;;;;;4994809;28;20034;-62
2021/09/06 11:11:02;;;;;;;0.95;0.93;;;18.70;48.60;;;;;;4998080;28;20398;-63
2021/09/06 11:13:39;;;;;;;1.20;1.10;;;18.70;48.60;;;;;;4995489;28;20041;-64
2021/09/06 11:16:07;;;;;;;0.85;0.85;;;18.70;48.50;;;;;;4994118;28;20033;-63
2021/09/06 11:18:45;;;;;;;1.45;1.35;;;18.70;48.20;;;;;;4987036;28;20049;-63
2021/09/06 11:21:11;;;;;;;1.02;1.00;;;18.80;48.00;;;;;;4995253;28;20078;-64
2021/09/06 11:23:40;;;;;;;0.80;0.80;;;18.80;47.90;;;;;;4986381;28;20034;-64
2021/09/06 11:26:08;;;;;;;1.30;1.20;;;18.90;47.90;;;;;;4995079;28;20058;-64
2021/09/06 11:28:34;;;;;;;1.67;1.42;;;18.90;47.80;;;;;;4991414;28;20037;-64
2021/09/06 11:31:00;;;;;;;1.33;1.10;;;18.90;47.80;;;;;;4992249;28;20113;-63
2021/09/06 11:33:29;;;;;;;1.13;1.08;;;18.90;47.60;;;;;;4994540;28;20547;-63
2021/09/06 11:35:55;;;;;;;2.20;1.25;;;18.80;47.70;;;;;;4993489;28;20034;-62
2021/09/06 11:38:21;;;;;;;1.30;1.20;;;18.80;47.60;;;;;;4990739;28;20087;-63
2021/09/06 11:40:55;;;;;;;0.95;0.95;;;18.80;47.50;;;;;;4990458;28;20126;-64
2021/09/06 11:43:24;;;;;;;1.85;1.40;;;18.70;47.30;;;;;;4987250;28;20049;-63
2021/09/06 11:45:58;;;;;;;1.05;0.93;;;18.70;48.00;;;;;;4985423;28;20033;-63
2021/09/06 11:48:23;;;;;;;1.20;1.20;;;18.60;47.30;;;;;;4989046;28;20045;-63
2021/09/06 11:50:50;;;;;;;1.13;1.02;;;18.60;47.40;;;;;;4987301;28;20050;-63
2021/09/06 11:53:18;;;;;;;1.30;1.20;;;18.60;47.30;;;;;;4989390;28;20066;-63
2021/09/06 11:55:51;;;;;;;2.13;1.52;;;18.60;47.40;;;;;;4985043;28;20030;-62
2021/09/06 11:58:17;;;;;;;1.30;1.15;;;18.50;47.10;;;;;;4990257;28;20044;-62
2021/09/06 12:00:43;;;;;;;0.85;0.85;;;18.50;47.20;;;;;;4992799;28;20037;-62
2021/09/06 12:03:10;;;;;;;1.10;1.10;;;18.60;47.40;;;;;;4990351;28;20548;-63
2021/09/06 12:05:47;;;;;;;1.33;1.23;;;18.60;47.40;;;;;;4982432;28;20033;-63
2021/09/06 12:08:15;;;;;;;1.02;1.02;;;18.60;47.00;;;;;;4983077;28;20089;-63
2021/09/06 12:10:45;;;;;;;1.13;1.00;;;18.60;46.90;;;;;;4988000;28;20057;-63
2021/09/06 12:13:21;;;;;;;1.27;1.17;;;18.70;46.90;;;;;;4985136;28;20473;-62
2021/09/06 12:15:59;;;;;;;1.30;1.05;;;18.70;46.70;;;;;;4983084;28;20080;-63
2021/09/06 12:18:42;;;;;;;1.50;1.40;;;18.70;46.70;;;;;;4988034;28;20037;-64
2021/09/06 12:21:19;;;;;;;1.27;1.15;;;18.70;46.50;;;;;;4984414;28;20140;-63
2021/09/06 12:23:50;;;;;;;1.83;1.27;;;18.70;46.90;;;;;;4979388;28;20026;-63
2021/09/06 12:26:17;;;;;;;1.42;1.33;;;18.70;46.90;;;;;;4985668;28;20516;-63
2021/09/06 12:28:51;;;;;;;1.40;1.30;;;18.70;46.70;;;;;;4986738;28;20029;-63
2021/09/06 12:31:18;;;;;;;1.40;1.30;;;18.70;46.70;;;;;;4987070;28;20030;-63
2021/09/06 12:33:48;;;;;;;1.40;1.20;;;18.60;46.90;;;;;;4987538;28;20775;-62
2021/09/06 12:36:14;;;;;;;1.55;1.45;;;18.60;47.30;;;;;;4984320;28;20037;-63
2021/09/06 12:38:40;;;;;;;3.75;1.42;;;18.60;47.50;;;;;;4984813;28;20038;-62
2021/09/06 12:41:06;;;;;;;1.33;1.23;;;18.60;47.30;;;;;;4980650;28;20048;-63
2021/09/06 12:43:31;;;;;;;1.58;1.17;;;18.60;47.30;;;;;;4986523;28;20108;-63
2021/09/06 12:45:57;;;;;;;1.60;1.27;;;18.60;47.10;;;;;;4984302;28;20033;-63
2021/09/06 12:48:23;;;;;;;1.27;1.20;;;18.60;46.80;;;;;;4995888;28;20034;-63